createdAt,value
2018-11-12T00:02:06.818Z,26.07
2018-11-12T00:07:10.439Z,27.50
2018-11-12T00:12:13.996Z,26.60
2018-11-12T00:17:17.571Z,28.37
2018-11-12T00:22:21.617Z,35.87
2018-11-12T00:27:25.325Z,47.33
2018-11-12T00:32:29.012Z,34.03
2018-11-12T00:37:32.907Z,30.57
2018-11-12T00:42:36.612Z,33.30
2018-11-12T00:47:40.447Z,33.13
2018-11-12T00:52:44.142Z,30.13
2018-11-12T00:57:47.717Z,31.67
2018-11-12T01:02:52.150Z,35.83
2018-11-12T01:07:55.763Z,28.20
2018-11-12T01:12:59.804Z,29.40
2018-11-12T01:18:03.736Z,28.70
2018-11-12T01:23:08.181Z,28.90
2018-11-12T01:28:11.769Z,27.37
2018-11-12T01:33:15.558Z,28.30
2018-11-12T01:38:19.135Z,30.23
2018-11-12T01:43:22.685Z,28.73
2018-11-12T01:48:26.348Z,29.77
2018-11-12T01:53:29.963Z,26.70
2018-11-12T01:58:33.922Z,26.50
2018-11-12T02:03:37.568Z,28.47
2018-11-12T02:08:41.237Z,28.00
2018-11-12T02:13:44.759Z,26.87
2018-11-12T02:18:48.325Z,27.70
2018-11-12T02:23:51.887Z,29.90
2018-11-12T02:28:55.492Z,31.83
2018-11-12T02:33:59.217Z,27.27
2018-11-12T02:39:02.884Z,25.13
2018-11-12T02:44:06.980Z,24.70
2018-11-12T02:49:10.596Z,23.83
2018-11-12T02:54:14.472Z,24.87
2018-11-12T02:59:18.102Z,24.47
2018-11-12T03:04:22.387Z,29.20
2018-11-12T03:09:25.988Z,30.77
2018-11-12T03:14:29.560Z,27.10
2018-11-12T03:19:33.119Z,30.07
2018-11-12T03:24:36.689Z,48.97
2018-11-12T03:29:40.650Z,30.50
2018-11-12T03:34:44.211Z,32.30
2018-11-12T03:39:47.852Z,34.60
2018-11-12T03:44:51.387Z,30.20
2018-11-12T03:49:55.057Z,33.07
2018-11-12T03:54:58.725Z,30.53
2018-11-12T04:00:02.393Z,28.13
2018-11-12T04:05:06.108Z,37.20
2018-11-12T04:10:12.946Z,43.17
2018-11-12T04:15:17.988Z,34.07
2018-11-12T04:20:22.804Z,30.43
2018-11-12T04:25:26.533Z,27.57
2018-11-12T04:30:39.186Z,28.00
2018-11-12T04:35:42.839Z,27.93
2018-11-12T04:40:46.471Z,57.60
2018-11-12T04:45:50.569Z,29.30
2018-11-12T04:50:54.167Z,35.47
2018-11-12T04:55:57.866Z,29.83
2018-11-12T05:01:01.426Z,29.40
2018-11-12T05:06:05.243Z,25.90
2018-11-12T05:11:08.928Z,22.73
2018-11-12T05:16:12.864Z,25.80
2018-11-12T05:21:16.459Z,26.33
2018-11-12T05:26:20.070Z,25.73
2018-11-12T05:31:23.691Z,25.27
2018-11-12T05:36:27.312Z,27.20
2018-11-12T05:41:31.436Z,23.80
2018-11-12T05:46:35.428Z,23.63
2018-11-12T05:51:39.272Z,27.37
2018-11-12T05:56:42.827Z,26.87
2018-11-12T06:01:46.412Z,27.10
2018-11-12T06:06:50.112Z,28.67
2018-11-12T06:11:53.716Z,24.03
2018-11-12T06:16:57.355Z,22.27
2018-11-12T06:22:00.976Z,18.37
2018-11-12T06:27:05.174Z,19.77
2018-11-12T06:32:08.767Z,18.43
2018-11-12T06:37:13.056Z,19.73
2018-11-12T06:42:16.969Z,21.47
2018-11-12T06:47:20.774Z,21.73
2018-11-12T06:52:24.417Z,25.50
2018-11-12T06:57:30.948Z,25.83
2018-11-12T07:02:37.998Z,22.40
2018-11-12T07:07:44.188Z,21.37
2018-11-12T07:12:48.440Z,21.17
2018-11-12T07:17:52.034Z,24.50
2018-11-12T07:22:55.637Z,24.23
2018-11-12T07:27:59.537Z,23.30
2018-11-12T07:33:03.126Z,22.83
2018-11-12T07:38:06.751Z,22.20
2018-11-12T07:43:10.318Z,22.00
2018-11-12T07:48:13.985Z,19.67
2018-11-12T07:53:17.882Z,20.90
2018-11-12T07:58:21.468Z,21.80
2018-11-12T08:03:25.053Z,25.87
2018-11-12T08:08:28.634Z,28.70
2018-11-12T08:13:32.257Z,25.83
2018-11-12T08:18:37.085Z,26.23
2018-11-12T08:23:40.764Z,28.73
2018-11-12T08:28:44.326Z,28.30
2018-11-12T08:33:48.079Z,24.93
2018-11-12T08:38:51.904Z,30.00
2018-11-12T08:43:55.554Z,29.20
2018-11-12T08:48:59.281Z,29.30
2018-11-12T08:54:02.775Z,27.10
2018-11-12T08:59:08.198Z,23.97
2018-11-12T09:04:11.994Z,29.70
2018-11-12T09:09:15.516Z,22.80
2018-11-12T09:14:19.375Z,25.03
2018-11-12T09:19:23.118Z,25.00
2018-11-12T09:24:26.740Z,26.00
2018-11-12T09:29:30.416Z,20.63
2018-11-12T09:34:34.195Z,23.60
2018-11-12T09:39:38.064Z,17.60
2018-11-12T09:44:41.872Z,16.90
2018-11-12T09:49:45.484Z,14.50
2018-11-12T09:54:49.181Z,14.17
2018-11-12T09:59:52.798Z,15.97
2018-11-12T10:04:57.750Z,15.67
2018-11-12T10:10:02.907Z,17.90
2018-11-12T10:15:06.541Z,16.00
2018-11-12T10:20:10.739Z,13.10
2018-11-12T10:25:14.247Z,10.97
2018-11-12T10:30:17.840Z,11.60
2018-11-12T10:35:21.428Z,12.60
2018-11-12T10:40:25.630Z,12.20
2018-11-12T10:45:29.316Z,11.50
2018-11-12T10:50:33.055Z,13.87
2018-11-12T10:55:36.847Z,12.47
2018-11-12T11:00:45.708Z,12.13
2018-11-12T11:05:51.316Z,11.20
2018-11-12T11:10:55.006Z,13.40
2018-11-12T11:15:58.658Z,12.30
2018-11-12T11:21:02.219Z,10.77
2018-11-12T11:26:05.864Z,10.67
2018-11-12T11:31:09.424Z,12.30
2018-11-12T11:36:13.256Z,11.30
2018-11-12T11:41:17.196Z,9.97
2018-11-12T11:46:20.828Z,12.13
2018-11-12T11:51:24.400Z,10.37
2018-11-12T11:56:33.315Z,8.70
2018-11-12T12:01:37.810Z,8.63
2018-11-12T12:06:41.377Z,8.50
2018-11-12T12:11:44.998Z,11.20
2018-11-12T12:16:48.564Z,9.20
2018-11-12T12:21:52.157Z,7.77
2018-11-12T12:26:55.758Z,14.13
2018-11-12T12:31:59.336Z,10.27
2018-11-12T12:37:02.988Z,7.53
2018-11-12T12:42:06.563Z,6.23
2018-11-12T12:47:10.120Z,5.77
2018-11-12T12:52:13.768Z,7.07
2018-11-12T12:57:17.643Z,7.33
2018-11-12T13:02:21.367Z,9.70
2018-11-12T13:07:24.929Z,10.53
2018-11-12T13:12:28.830Z,8.67
2018-11-12T13:17:32.379Z,8.27
2018-11-12T13:22:35.646Z,6.13
2018-11-12T13:27:41.733Z,6.30
2018-11-12T13:32:46.332Z,7.00
2018-11-12T13:37:50.850Z,7.00
2018-11-12T13:42:57.804Z,9.27
2018-11-12T13:48:01.374Z,8.80
2018-11-12T13:53:05.092Z,13.43
2018-11-12T13:58:08.876Z,8.50
2018-11-12T14:03:12.436Z,7.53
2018-11-12T14:08:15.974Z,8.00
2018-11-12T14:13:19.558Z,9.47
2018-11-12T14:18:23.200Z,7.27
2018-11-12T14:23:26.765Z,7.60
2018-11-12T14:28:31.413Z,6.83
2018-11-12T14:33:34.850Z,6.40
2018-11-12T14:38:38.603Z,8.07
2018-11-12T14:43:42.231Z,8.03
2018-11-12T14:48:46.223Z,7.40
2018-11-12T14:53:49.792Z,6.90
2018-11-12T14:58:53.451Z,7.23
2018-11-12T15:03:57.003Z,8.57
2018-11-12T15:09:01.213Z,5.87
2018-11-12T15:14:04.839Z,9.80
2018-11-12T15:19:09.274Z,11.90
2018-11-12T15:24:12.838Z,16.30
2018-11-12T15:29:16.635Z,16.73
2018-11-12T15:34:20.213Z,12.10
2018-11-12T15:39:23.915Z,13.73
2018-11-12T15:44:27.523Z,15.07
2018-11-12T15:49:31.100Z,24.93
2018-11-12T15:54:34.645Z,14.77
2018-11-12T15:59:38.436Z,22.80
2018-11-12T16:04:42.017Z,21.17
2018-11-12T16:09:45.634Z,13.37
2018-11-12T16:14:49.336Z,11.23
2018-11-12T16:19:53.264Z,18.07
2018-11-12T16:24:56.821Z,15.00
2018-11-12T16:30:00.511Z,11.13
2018-11-12T16:35:04.950Z,11.20
2018-11-12T16:40:09.075Z,10.27
2018-11-12T16:45:13.514Z,10.20
2018-11-12T16:50:18.087Z,11.10
2018-11-12T16:55:22.758Z,10.37
2018-11-12T17:00:26.514Z,11.77
2018-11-12T17:05:30.076Z,8.50
2018-11-12T17:10:33.689Z,8.50
2018-11-12T17:15:37.235Z,15.17
2018-11-12T17:20:40.863Z,15.37
2018-11-12T17:25:45.092Z,15.10
2018-11-12T17:30:48.781Z,16.73
2018-11-12T17:35:52.409Z,12.03
2018-11-12T17:40:56.009Z,10.73
2018-11-12T17:45:59.658Z,9.47
2018-11-12T17:51:03.537Z,10.20
2018-11-12T17:56:07.212Z,9.13
2018-11-12T18:01:11.132Z,9.57
2018-11-12T18:06:15.099Z,8.57
2018-11-12T18:11:19.260Z,7.80
2018-11-12T18:16:22.883Z,12.80
2018-11-12T18:21:26.880Z,11.20
2018-11-12T18:26:30.777Z,13.13
2018-11-12T18:31:34.715Z,11.10
2018-11-12T18:36:38.132Z,9.17
2018-11-12T18:41:41.747Z,9.03
2018-11-12T18:46:45.370Z,9.97
2018-11-12T18:51:48.989Z,10.10
2018-11-12T18:56:52.984Z,9.00
2018-11-12T19:01:56.882Z,9.57
2018-11-12T19:07:01.020Z,10.87
2018-11-12T19:12:06.257Z,9.00
2018-11-12T19:17:10.021Z,10.10
2018-11-12T19:22:13.672Z,11.90
2018-11-12T19:27:17.329Z,12.77
2018-11-12T19:32:20.954Z,14.30
2018-11-12T19:37:24.848Z,18.43
2018-11-12T19:42:28.447Z,14.37
2018-11-12T19:47:32.119Z,20.50
2018-11-12T19:52:36.919Z,13.07
2018-11-12T19:57:41.074Z,10.03
2018-11-12T20:02:45.851Z,11.67
2018-11-12T20:07:49.469Z,13.83
2018-11-12T20:12:53.389Z,13.40
2018-11-12T20:17:58.442Z,12.53
2018-11-12T20:23:02.227Z,14.70
2018-11-12T20:28:05.995Z,12.47
2018-11-12T20:33:09.556Z,10.17
2018-11-12T20:38:13.775Z,11.60
2018-11-12T20:43:17.391Z,16.30
2018-11-12T20:48:21.047Z,13.50
2018-11-12T20:53:24.642Z,13.27
2018-11-12T20:58:29.188Z,12.83
2018-11-12T21:03:33.223Z,14.50
2018-11-12T21:08:38.123Z,10.87
2018-11-12T21:13:41.936Z,10.03
2018-11-12T21:18:46.809Z,11.70
2018-11-12T21:23:51.281Z,20.57
2018-11-12T21:28:55.511Z,21.00
2018-11-12T21:33:59.144Z,18.53
2018-11-12T21:39:02.813Z,16.20
2018-11-12T21:44:07.106Z,15.70
2018-11-12T21:49:11.050Z,13.20
2018-11-12T21:54:15.556Z,15.67
2018-11-12T21:59:19.468Z,15.90
2018-11-12T22:04:23.398Z,18.23
2018-11-12T22:09:27.575Z,20.87
2018-11-12T22:14:31.252Z,19.93
2018-11-12T22:19:34.973Z,17.00
2018-11-12T22:24:43.838Z,24.03
2018-11-12T22:29:47.584Z,22.07
2018-11-12T22:34:53.050Z,19.53
2018-11-12T22:39:56.736Z,23.23
2018-11-12T22:45:00.324Z,22.73
2018-11-12T22:50:04.224Z,26.73
2018-11-12T22:55:08.598Z,27.57
2018-11-12T23:00:28.053Z,23.97
2018-11-12T23:05:31.600Z,24.87
2018-11-12T23:10:35.287Z,21.67
2018-11-12T23:15:38.848Z,22.27
2018-11-12T23:20:47.810Z,19.30
2018-11-12T23:25:51.920Z,19.47
2018-11-12T23:30:55.525Z,16.47
2018-11-12T23:35:59.071Z,18.17
2018-11-12T23:41:02.655Z,21.10
2018-11-12T23:46:06.424Z,17.10
2018-11-12T23:51:10.861Z,29.33
2018-11-12T23:56:14.451Z,13.40
